Time;durP1;ratioP1;P1;durP2;ratioP2;P2;SDS_P1;SDS_P2;PMS_P1;PMS_P2;Temp;Humidity;BMP_temperature;BMP_pressure;BME280_temperature;BME280_humidity;BME280_pressure;Samples;Min_cycle;Max_cycle;Signal;HPM_P1;HPM_P2
2023/03/11 00:00:08;;;;;;;1.05;0.80;;;;;;;5.37;100.00;95998.88;2536772;29;20059;-81
2023/03/11 00:01:25;;;;;;;0.75;0.63;;;;;;;5.16;100.00;96000.72;2545646;29;20145;-81
2023/03/11 00:02:41;;;;;;;0.50;0.50;;;;;;;5.04;100.00;96012.50;2552449;29;20483;-82
2023/03/11 00:03:58;;;;;;;0.70;0.70;;;;;;;4.83;100.00;96030.69;2550925;29;20052;-83
2023/03/11 00:05:21;;;;;;;0.68;0.52;;;;;;;4.21;100.00;96030.72;2541967;29;20952;-84
2023/03/11 00:06:36;;;;;;;;;;;;;;;4.03;100.00;96040.91;2548552;29;20530;-78
2023/03/11 00:07:53;;;;;;;0.98;0.70;;;;;;;3.71;100.00;96029.28;2553353;29;19923;-80
2023/03/11 00:09:09;;;;;;;0.70;0.70;;;;;;;3.67;100.00;96073.38;2551867;29;20059;-79
2023/03/11 00:10:28;;;;;;;0.50;0.50;;;;;;;3.72;100.00;96052.50;2551371;29;20590;-80
2023/03/11 00:11:43;;;;;;;0.70;0.70;;;;;;;3.80;100.00;96050.47;2550431;29;20051;-81
2023/03/11 00:13:00;;;;;;;0.60;0.55;;;;;;;3.83;100.00;96059.84;2551554;29;20062;-82
2023/03/11 00:14:16;;;;;;;0.70;0.70;;;;;;;3.84;100.00;96065.88;2552987;29;20102;-83
2023/03/11 00:15:32;;;;;;;0.80;0.80;;;;;;;3.55;100.00;96078.19;2551299;29;20106;-82
2023/03/11 00:16:47;;;;;;;1.08;0.98;;;;;;;3.64;100.00;96047.63;2551635;29;20051;-81
2023/03/11 00:18:04;;;;;;;1.00;0.90;;;;;;;3.63;100.00;96066.63;2552530;29;20719;-81
2023/03/11 00:19:19;;;;;;;1.00;0.90;;;;;;;3.80;100.00;96065.13;2552151;29;20043;-80
2023/03/11 00:20:37;;;;;;;0.75;0.75;;;;;;;3.62;100.00;96090.84;2552393;28;20214;-79
2023/03/11 00:21:53;;;;;;;0.70;0.70;;;;;;;3.19;100.00;96082.94;2551765;29;20488;-81
2023/03/11 00:23:10;;;;;;;0.80;0.80;;;;;;;3.13;100.00;96111.59;2552828;29;20412;-81
2023/03/11 00:24:26;;;;;;;1.67;0.90;;;;;;;3.18;100.00;96108.84;2551265;28;20051;-81
2023/03/11 00:25:43;;;;;;;1.00;0.90;;;;;;;3.11;100.00;96066.88;2552905;29;20530;-84
2023/03/11 00:26:59;;;;;;;1.35;1.00;;;;;;;3.03;100.00;96098.16;2551538;29;20058;-81
2023/03/11 00:28:15;;;;;;;0.73;0.73;;;;;;;2.97;100.00;96130.25;2542064;29;20084;-81
2023/03/11 00:29:31;;;;;;;0.47;0.47;;;;;;;3.01;100.00;96112.03;2543839;29;20594;-81
2023/03/11 00:30:46;;;;;;;1.23;0.98;;;;;;;3.20;100.00;96118.22;2553500;29;20047;-81
2023/03/11 00:32:02;;;;;;;0.80;0.80;;;;;;;3.17;100.00;96122.69;2552175;28;20105;-80
2023/03/11 00:33:18;;;;;;;0.65;0.65;;;;;;;3.15;100.00;96121.91;2552989;29;20059;-81
2023/03/11 00:34:33;;;;;;;0.93;0.70;;;;;;;3.23;100.00;96118.13;2542196;29;20051;-81
2023/03/11 00:35:49;;;;;;;1.02;0.80;;;;;;;3.19;100.00;96113.13;2544394;29;20384;-82
2023/03/11 00:37:05;;;;;;;0.80;0.70;;;;;;;3.27;100.00;96124.00;2551718;29;20498;-81
2023/03/11 00:38:20;;;;;;;0.73;0.60;;;;;;;3.31;100.00;96120.44;2552599;29;20055;-79
2023/03/11 00:39:36;;;;;;;0.77;0.60;;;;;;;3.24;100.00;96124.13;2550786;29;20060;-79
2023/03/11 00:40:52;;;;;;;1.58;0.80;;;;;;;3.23;100.00;96118.13;2550498;29;20062;-81
2023/03/11 00:42:07;;;;;;;1.33;0.63;;;;;;;3.48;100.00;96127.56;2551328;29;20048;-79
2023/03/11 00:43:23;;;;;;;1.67;0.82;;;;;;;3.32;100.00;96104.03;2551726;29;20066;-80
2023/03/11 00:44:39;;;;;;;0.57;0.57;;;;;;;3.36;100.00;96122.88;2551444;29;20396;-79
2023/03/11 00:45:54;;;;;;;0.80;0.70;;;;;;;3.43;100.00;96108.78;2550965;29;20059;-81
2023/03/11 00:47:11;;;;;;;1.00;0.80;;;;;;;3.31;100.00;96099.75;2552464;29;20094;-79
2023/03/11 00:48:26;;;;;;;0.85;0.65;;;;;;;3.34;100.00;96075.50;2550967;28;20047;-81
2023/03/11 00:49:42;;;;;;;0.50;0.50;;;;;;;3.40;100.00;96124.44;2550973;29;20425;-80
2023/03/11 00:50:57;;;;;;;0.60;0.60;;;;;;;3.42;100.00;96127.78;2552826;29;20146;-79
2023/03/11 00:52:13;;;;;;;0.50;0.50;;;;;;;3.39;100.00;96133.09;2551416;29;20134;-81
2023/03/11 00:53:28;;;;;;;1.23;0.90;;;;;;;3.47;100.00;96137.97;2553050;29;20047;-79
2023/03/11 00:54:45;;;;;;;0.50;0.50;;;;;;;3.50;100.00;96130.09;2550372;29;20143;-79
2023/03/11 00:56:06;;;;;;;1.42;0.73;;;;;;;3.34;100.00;96115.16;2553113;28;20503;-79
2023/03/11 00:57:22;;;;;;;0.60;0.60;;;;;;;3.40;100.00;96121.84;2553447;29;21060;-83
2023/03/11 00:58:38;;;;;;;0.80;0.50;;;;;;;3.44;100.00;96120.81;2552709;29;20052;-79
2023/03/11 00:59:55;;;;;;;0.65;0.65;;;;;;;3.55;100.00;96132.53;2552347;29;20062;-79
2023/03/11 01:01:14;;;;;;;0.88;0.80;;;;;;;3.41;100.00;96125.25;2551812;28;20055;-78
2023/03/11 01:02:29;;;;;;;0.80;0.80;;;;;;;3.45;100.00;96130.25;2539767;29;21095;-82
2023/03/11 01:03:46;;;;;;;1.83;0.75;;;;;;;3.46;100.00;96123.38;2544204;29;20078;-79
2023/03/11 01:05:03;;;;;;;1.13;0.50;;;;;;;3.65;100.00;96142.47;2552508;29;20054;-79
2023/03/11 01:06:20;;;;;;;0.70;0.57;;;;;;;3.63;100.00;96153.75;2552665;29;20082;-84
2023/03/11 01:07:36;;;;;;;0.80;0.75;;;;;;;3.56;100.00;96136.78;2550296;29;20463;-78
2023/03/11 01:08:51;;;;;;;0.50;0.50;;;;;;;3.65;100.00;96157.16;2551984;29;20270;-79
2023/03/11 01:10:08;;;;;;;0.80;0.60;;;;;;;3.73;100.00;96155.13;2551767;29;20482;-77
2023/03/11 01:11:24;;;;;;;0.70;0.70;;;;;;;3.44;100.00;96141.50;2550264;29;20053;-78
2023/03/11 01:12:40;;;;;;;0.75;0.70;;;;;;;3.50;100.00;96187.00;2550446;29;20135;-78
2023/03/11 01:13:56;;;;;;;1.80;0.73;;;;;;;3.35;100.00;96141.84;2550636;29;20085;-78
2023/03/11 01:15:22;;;;;;;1.05;0.73;;;;;;;3.41;100.00;96156.28;2550673;29;20146;-79
2023/03/11 01:16:38;;;;;;;0.70;0.70;;;;;;;3.52;100.00;96186.06;2550572;29;20058;-78
2023/03/11 01:17:53;;;;;;;1.75;0.85;;;;;;;3.40;100.00;96173.56;2550549;29;20044;-78
2023/03/11 01:19:09;;;;;;;0.60;0.52;;;;;;;3.44;100.00;96171.72;2550748;29;20464;-78
2023/03/11 01:20:25;;;;;;;0.95;0.73;;;;;;;3.48;100.00;96175.88;2550584;29;20059;-78
2023/03/11 01:21:41;;;;;;;0.82;0.60;;;;;;;3.45;100.00;96189.75;2550646;29;20048;-78
2023/03/11 01:22:57;;;;;;;0.65;0.60;;;;;;;3.61;100.00;96182.31;2550647;29;20063;-78
2023/03/11 01:24:13;;;;;;;1.52;1.02;;;;;;;3.36;100.00;96175.41;2550594;29;20179;-77
2023/03/11 01:25:29;;;;;;;0.40;0.40;;;;;;;3.52;100.00;96188.66;2550684;29;20059;-78
2023/03/11 01:26:44;;;;;;;0.60;0.60;;;;;;;3.57;100.00;96188.50;2550365;29;20075;-78
2023/03/11 01:28:00;;;;;;;0.88;0.40;;;;;;;3.45;100.00;96199.28;2550573;29;20506;-78
2023/03/11 01:29:15;;;;;;;0.95;0.82;;;;;;;3.39;100.00;96184.81;2550492;29;20054;-78
2023/03/11 01:30:31;;;;;;;0.82;0.70;;;;;;;3.25;100.00;96182.72;2550473;29;20707;-78
2023/03/11 01:31:47;;;;;;;1.08;0.85;;;;;;;3.22;100.00;96198.34;2550618;29;20127;-78
2023/03/11 01:33:04;;;;;;;0.70;0.60;;;;;;;3.28;100.00;96190.34;2539998;29;20159;-78
2023/03/11 01:34:19;;;;;;;0.82;0.77;;;;;;;3.15;100.00;96197.72;2544232;29;20052;-79
2023/03/11 01:35:35;;;;;;;0.93;0.80;;;;;;;3.34;100.00;96194.47;2550534;29;20070;-78
2023/03/11 01:36:51;;;;;;;1.13;0.98;;;;;;;3.16;100.00;96198.56;2550561;29;20147;-78
2023/03/11 01:38:06;;;;;;;0.60;0.60;;;;;;;3.35;100.00;96202.19;2550471;29;20054;-78
2023/03/11 01:39:22;;;;;;;0.82;0.70;;;;;;;3.32;100.00;96185.94;2550595;29;20048;-78
2023/03/11 01:40:41;;;;;;;1.65;0.70;;;;;;;3.44;100.00;96201.00;2550403;29;20185;-78
2023/03/11 01:41:57;;;;;;;0.77;0.73;;;;;;;3.35;100.00;96209.94;2550325;29;20062;-78
2023/03/11 01:43:38;;;;;;;1.50;1.10;;;;;;;3.27;100.00;96211.13;2550478;29;20063;-78
2023/03/11 01:44:54;;;;;;;1.40;0.90;;;;;;;3.16;100.00;96219.25;2550431;29;20491;-78
2023/03/11 01:46:20;;;;;;;0.70;0.63;;;;;;;3.27;100.00;96218.88;2550284;29;20082;-78
2023/03/11 01:47:38;;;;;;;2.63;1.08;;;;;;;3.21;100.00;96222.50;2539704;29;20072;-78
2023/03/11 01:48:59;;;;;;;1.17;0.77;;;;;;;3.25;100.00;96229.25;2544284;29;20058;-78
2023/03/11 01:50:15;;;;;;;1.08;0.90;;;;;;;3.02;100.00;96224.88;2550269;29;20507;-78
2023/03/11 01:51:39;;;;;;;1.20;1.10;;;;;;;3.08;100.00;96227.28;2550291;29;20526;-79
2023/03/11 01:52:55;;;;;;;1.65;1.10;;;;;;;2.96;100.00;96231.09;2539810;29;20508;-78
2023/03/11 01:54:32;;;;;;;3.03;0.93;;;;;;;3.17;100.00;96246.78;2543979;29;20063;-78
2023/03/11 01:55:48;;;;;;;1.13;0.80;;;;;;;3.00;100.00;96245.59;2550324;29;20054;-78
2023/03/11 01:57:06;;;;;;;1.38;0.90;;;;;;;2.95;100.00;96232.84;2550417;29;20195;-78
2023/03/11 01:58:29;;;;;;;1.02;0.82;;;;;;;3.17;100.00;96252.78;2550431;29;20530;-78
2023/03/11 01:59:52;;;;;;;2.60;1.13;;;;;;;3.11;100.00;96260.78;2550606;29;20103;-78
2023/03/11 02:01:07;;;;;;;0.75;0.70;;;;;;;3.10;100.00;96256.50;2549962;29;20060;-78
2023/03/11 02:02:34;;;;;;;0.85;0.70;;;;;;;2.92;100.00;96263.94;2550203;29;20562;-78
2023/03/11 02:03:50;;;;;;;2.85;1.70;;;;;;;2.76;100.00;96270.50;2550233;29;20052;-78
2023/03/11 02:05:05;;;;;;;2.53;1.10;;;;;;;2.99;100.00;96280.09;2550259;29;20055;-78
2023/03/11 02:06:23;;;;;;;1.95;1.20;;;;;;;2.66;100.00;96283.75;2550192;29;20118;-79
2023/03/11 02:07:39;;;;;;;2.13;1.48;;;;;;;2.58;100.00;96277.94;2550131;29;20095;-78
2023/03/11 02:08:55;;;;;;;1.70;1.15;;;;;;;2.56;100.00;96295.25;2550157;29;20055;-77
2023/03/11 02:10:12;;;;;;;3.13;1.15;;;;;;;2.45;100.00;96276.63;2549846;29;20392;-78
2023/03/11 02:11:29;;;;;;;2.70;1.23;;;;;;;2.65;100.00;96289.81;2550227;29;20043;-78
2023/03/11 02:12:47;;;;;;;1.50;1.33;;;;;;;2.55;100.00;96290.97;2550028;29;20142;-77
2023/03/11 02:14:07;;;;;;;2.72;1.75;;;;;;;2.47;100.00;96287.75;2550149;29;20393;-77
2023/03/11 02:15:23;;;;;;;1.88;1.33;;;;;;;2.57;100.00;96290.91;2549845;29;20063;-78
2023/03/11 02:16:38;;;;;;;1.90;1.17;;;;;;;2.57;100.00;96293.50;2550138;29;20538;-78
2023/03/11 02:29:42;;;;;;;2.25;1.45;;;;;;;2.55;100.00;96321.97;2650561;27;25284;-79
2023/03/11 02:30:58;;;;;;;3.30;1.52;;;;;;;2.39;100.00;96314.69;2650898;28;20810;-79
2023/03/11 02:32:13;;;;;;;1.42;1.10;;;;;;;2.55;100.00;96316.81;2650879;28;20066;-79
2023/03/11 02:33:31;;;;;;;2.00;1.70;;;;;;;2.52;100.00;96320.31;2639459;28;20048;-80
2023/03/11 02:34:47;;;;;;;1.83;1.48;;;;;;;2.62;100.00;96320.03;2644194;28;20070;-79
2023/03/11 02:36:03;;;;;;;3.45;1.42;;;;;;;2.46;100.00;96333.44;2650812;28;20437;-79
2023/03/11 02:37:19;;;;;;;3.47;1.85;;;;;;;2.40;100.00;96323.25;2650561;28;20086;-79
2023/03/11 02:38:35;;;;;;;2.67;1.85;;;;;;;2.41;100.00;96322.38;2650713;28;20629;-79
2023/03/11 02:39:53;;;;;;;1.95;1.40;;;;;;;2.24;100.00;96330.63;2650671;28;20051;-79
2023/03/11 02:41:09;;;;;;;2.75;1.90;;;;;;;2.35;100.00;96325.16;2650727;28;20084;-80
2023/03/11 02:42:27;;;;;;;1.70;1.30;;;;;;;2.21;100.00;96323.81;2650453;28;20451;-80
2023/03/11 02:43:45;;;;;;;2.30;1.83;;;;;;;2.18;100.00;96317.88;2650636;28;20627;-79
2023/03/11 02:45:11;;;;;;;2.30;1.67;;;;;;;2.20;100.00;96316.97;2650326;28;20123;-79
2023/03/11 02:46:27;;;;;;;1.83;1.23;;;;;;;2.40;100.00;96329.28;2650639;28;20122;-82
2023/03/11 02:47:43;;;;;;;3.65;1.80;;;;;;;2.40;100.00;96336.19;2650644;28;20389;-79
2023/03/11 02:48:58;;;;;;;2.15;1.45;;;;;;;2.43;100.00;96336.06;2650590;28;20128;-80
2023/03/11 02:50:17;;;;;;;2.15;1.58;;;;;;;2.52;100.00;96322.06;2650481;28;20309;-79
2023/03/11 02:51:32;;;;;;;2.28;1.67;;;;;;;2.46;100.00;96330.84;2650771;28;20475;-79
2023/03/11 02:52:48;;;;;;;4.15;1.80;;;;;;;2.48;100.00;96341.09;2650545;28;20047;-80
2023/03/11 02:54:05;;;;;;;2.45;1.42;;;;;;;2.33;100.00;96343.25;2650579;28;20123;-79
2023/03/11 02:55:20;;;;;;;3.90;2.00;;;;;;;2.27;100.00;96327.94;2650478;28;20073;-80
2023/03/11 02:56:36;;;;;;;4.40;1.70;;;;;;;2.46;100.00;96340.31;2650651;28;20504;-80
2023/03/11 02:57:52;;;;;;;2.47;1.42;;;;;;;2.44;100.00;96342.09;2650389;28;20499;-79
2023/03/11 02:59:07;;;;;;;5.10;2.20;;;;;;;2.34;100.00;96354.44;2650455;28;20084;-79
2023/03/11 03:00:23;;;;;;;2.00;1.23;;;;;;;2.59;100.00;96348.56;2650308;28;20063;-80
2023/03/11 03:01:39;;;;;;;3.47;1.55;;;;;;;2.33;100.00;96358.75;2650527;28;20077;-80
2023/03/11 03:02:55;;;;;;;2.25;1.50;;;;;;;2.41;100.00;96355.94;2638984;28;20063;-79
2023/03/11 03:04:10;;;;;;;2.28;1.20;;;;;;;2.32;100.00;96366.56;2643604;28;20043;-80
2023/03/11 03:05:26;;;;;;;1.95;1.45;;;;;;;2.40;100.00;96352.53;2650372;28;20071;-80
2023/03/11 03:06:42;;;;;;;2.30;1.25;;;;;;;2.42;100.00;96370.53;2650382;28;20047;-79
2023/03/11 03:07:58;;;;;;;2.40;1.48;;;;;;;2.21;100.00;96369.41;2650306;28;20040;-80
2023/03/11 03:09:13;;;;;;;2.00;1.30;;;;;;;2.19;100.00;96364.31;2650356;28;20067;-80
2023/03/11 03:10:29;;;;;;;2.33;1.67;;;;;;;2.14;100.00;96373.91;2650317;28;20418;-79
2023/03/11 03:11:45;;;;;;;2.38;1.80;;;;;;;2.11;100.00;96380.03;2650518;28;20051;-79
2023/03/11 03:13:00;;;;;;;1.70;1.13;;;;;;;2.24;100.00;96382.28;2639081;28;20177;-81
2023/03/11 03:14:16;;;;;;;2.90;1.50;;;;;;;2.22;100.00;96368.53;2643567;28;20059;-79
2023/03/11 03:15:31;;;;;;;1.90;1.58;;;;;;;2.11;100.00;96398.09;2650197;28;20044;-79
2023/03/11 03:16:48;;;;;;;1.65;1.35;;;;;;;2.16;100.00;96374.72;2650437;28;20420;-79
2023/03/11 03:18:03;;;;;;;1.20;1.00;;;;;;;2.30;100.00;96386.38;2650338;28;20088;-80
2023/03/11 03:19:19;;;;;;;1.77;1.30;;;;;;;2.37;100.00;96391.34;2650467;28;20051;-79
2023/03/11 03:20:35;;;;;;;1.13;1.00;;;;;;;2.48;100.00;96383.31;2649957;28;20055;-80
2023/03/11 03:21:50;;;;;;;2.03;1.20;;;;;;;2.50;100.00;96391.84;2650216;28;20462;-80
2023/03/11 03:23:06;;;;;;;2.10;1.30;;;;;;;2.34;100.00;96404.34;2650396;28;20124;-79
2023/03/11 03:27:10;;;;;;;1.80;1.15;;;;;;;2.46;100.00;96423.81;2612539;28;20041;-82
2023/03/11 03:28:28;;;;;;;0.80;0.80;;;;;;;2.44;100.00;96412.66;2607202;28;20148;-83
2023/03/11 03:31:10;;;;;;;0.85;0.63;;;;;;;2.54;100.00;96428.78;2974170;22;20708;-79
2023/03/11 03:32:34;;;;;;;1.20;1.10;;;;;;;2.57;100.00;96420.06;2619701;28;20083;-79
2023/03/11 03:33:51;;;;;;;1.40;1.10;;;;;;;2.47;100.00;96435.00;2620981;28;20101;-80
2023/03/11 03:35:07;;;;;;;2.10;1.10;;;;;;;2.31;100.00;96437.16;2622040;28;20056;-79
2023/03/11 03:36:23;;;;;;;1.40;0.85;;;;;;;2.45;100.00;96439.34;2622103;28;20123;-79
2023/03/11 03:37:38;;;;;;;2.13;1.05;;;;;;;2.24;100.00;96446.81;2622155;28;20053;-79
2023/03/11 03:38:55;;;;;;;1.25;0.90;;;;;;;2.21;100.00;96441.72;2621766;28;20087;-80
2023/03/11 03:40:11;;;;;;;2.13;1.50;;;;;;;2.25;100.00;96438.19;2621806;28;20080;-79
2023/03/11 03:41:27;;;;;;;1.55;1.02;;;;;;;2.37;100.00;96424.06;2622010;28;20408;-79
2023/03/11 03:42:43;;;;;;;1.85;1.30;;;;;;;2.22;100.00;96444.25;2622066;28;20086;-79
2023/03/11 03:43:59;;;;;;;1.60;1.00;;;;;;;2.14;100.00;96451.34;2622008;28;20060;-79
2023/03/11 03:45:14;;;;;;;1.05;0.88;;;;;;;2.32;100.00;96439.69;2610900;28;20083;-83
2023/03/11 03:46:30;;;;;;;1.23;1.13;;;;;;;2.20;100.00;96437.44;2615273;28;20072;-79
2023/03/11 03:47:46;;;;;;;1.20;0.80;;;;;;;2.27;100.00;96449.31;2621749;28;20062;-79
2023/03/11 03:49:01;;;;;;;1.20;1.00;;;;;;;2.35;100.00;96465.44;2621857;28;20732;-79
2023/03/11 03:50:17;;;;;;;2.53;1.10;;;;;;;2.18;100.00;96465.03;2621821;28;20040;-79
2023/03/11 03:51:33;;;;;;;1.45;1.20;;;;;;;2.31;100.00;96461.25;2621694;28;20063;-79
2023/03/11 03:52:49;;;;;;;3.70;1.20;;;;;;;2.18;100.00;96465.03;2621725;28;20041;-79
2023/03/11 03:54:04;;;;;;;1.27;1.10;;;;;;;2.07;100.00;96473.91;2621878;28;20127;-79
2023/03/11 03:55:20;;;;;;;1.95;1.30;;;;;;;2.00;100.00;96479.25;2621781;28;20344;-79
2023/03/11 03:56:36;;;;;;;1.63;1.00;;;;;;;2.05;100.00;96462.78;2621899;28;20056;-79
2023/03/11 03:57:51;;;;;;;1.65;1.00;;;;;;;2.06;100.00;96481.72;2621854;28;20049;-79
2023/03/11 03:59:07;;;;;;;1.55;0.82;;;;;;;2.32;100.00;96480.19;2622046;28;20052;-79
2023/03/11 04:00:22;;;;;;;1.60;1.13;;;;;;;2.05;100.00;96503.25;2621856;28;20446;-78
2023/03/11 04:01:38;;;;;;;1.98;1.30;;;;;;;2.14;100.00;96486.66;2621801;28;20895;-79
2023/03/11 04:02:54;;;;;;;1.45;1.20;;;;;;;2.01;100.00;96499.88;2621755;28;20044;-79
2023/03/11 04:04:09;;;;;;;2.92;1.90;;;;;;;2.19;100.00;96495.13;2621738;28;20414;-80
2023/03/11 04:05:26;;;;;;;1.60;1.27;;;;;;;2.10;100.00;96507.41;2621686;28;20045;-79
2023/03/11 04:06:42;;;;;;;1.58;1.15;;;;;;;2.03;100.00;96505.84;2621745;28;20083;-79
2023/03/11 04:07:57;;;;;;;1.73;1.30;;;;;;;2.18;100.00;96506.34;2621425;28;20402;-79
2023/03/11 04:09:13;;;;;;;1.58;1.05;;;;;;;2.19;100.00;96503.72;2621727;28;20131;-80
2023/03/11 04:10:29;;;;;;;1.15;0.80;;;;;;;2.19;100.00;96500.28;2621688;28;20454;-79
2023/03/11 04:11:44;;;;;;;1.05;0.88;;;;;;;2.14;100.00;96520.22;2621755;28;20049;-80
2023/03/11 04:13:00;;;;;;;1.23;0.93;;;;;;;2.22;100.00;96510.53;2621599;28;20044;-80
2023/03/11 04:14:16;;;;;;;1.38;0.80;;;;;;;2.31;100.00;96512.06;2621729;28;20044;-79
2023/03/11 04:15:31;;;;;;;1.10;0.90;;;;;;;2.36;100.00;96525.69;2621603;28;20060;-79
2023/03/11 04:16:47;;;;;;;1.13;1.02;;;;;;;1.98;100.00;96533.53;2621815;28;20040;-79
2023/03/11 04:18:03;;;;;;;1.20;1.10;;;;;;;1.90;100.00;96543.16;2621732;28;20036;-79
2023/03/11 04:19:18;;;;;;;0.82;0.73;;;;;;;2.04;100.00;96523.03;2621509;28;20048;-79
2023/03/11 04:20:34;;;;;;;1.52;0.90;;;;;;;2.25;100.00;96525.97;2621325;28;20048;-79
2023/03/11 04:21:50;;;;;;;1.25;1.15;;;;;;;2.06;100.00;96523.00;2610605;28;20514;-79
2023/03/11 04:23:06;;;;;;;2.17;0.98;;;;;;;2.08;100.00;96526.38;2615097;28;20041;-79
2023/03/11 04:24:21;;;;;;;1.45;1.20;;;;;;;2.02;100.00;96540.28;2621605;28;20076;-79
2023/03/11 04:25:37;;;;;;;1.33;1.15;;;;;;;1.95;100.00;96529.28;2621657;28;20510;-80
2023/03/11 04:26:53;;;;;;;0.82;0.77;;;;;;;2.18;100.00;96539.91;2621604;28;20048;-79
2023/03/11 04:28:08;;;;;;;0.73;0.73;;;;;;;2.27;100.00;96539.69;2621646;28;20044;-80
2023/03/11 04:29:24;;;;;;;1.27;0.95;;;;;;;2.21;100.00;96547.56;2621365;28;20113;-79
2023/03/11 04:30:40;;;;;;;2.42;1.20;;;;;;;2.03;100.00;96556.66;2621476;28;20215;-79
2023/03/11 04:31:55;;;;;;;1.42;1.13;;;;;;;1.81;100.00;96560.56;2621227;28;20056;-79
2023/03/11 04:33:11;;;;;;;1.67;1.40;;;;;;;1.98;100.00;96561.91;2610297;28;20110;-79
2023/03/11 04:34:27;;;;;;;1.65;1.27;;;;;;;2.00;100.00;96549.81;2614805;28;20067;-79
2023/03/11 04:35:42;;;;;;;1.00;0.90;;;;;;;2.03;100.00;96562.63;2621584;28;20048;-79
2023/03/11 04:36:58;;;;;;;1.52;1.35;;;;;;;2.00;100.00;96567.88;2621279;28;20048;-79
2023/03/11 04:38:13;;;;;;;1.38;1.00;;;;;;;2.09;100.00;96577.13;2621470;28;20521;-79
2023/03/11 04:39:29;;;;;;;1.27;0.77;;;;;;;2.11;100.00;96581.38;2621397;28;20505;-79
2023/03/11 04:40:45;;;;;;;2.13;1.48;;;;;;;1.82;100.00;96589.81;2621512;28;20551;-79
2023/03/11 04:42:00;;;;;;;1.27;1.17;;;;;;;1.59;100.00;96614.38;2620201;28;20098;-79
2023/03/11 04:43:16;;;;;;;1.30;1.02;;;;;;;1.84;100.00;96600.94;2621574;28;20052;-79
2023/03/11 04:44:34;;;;;;;2.10;1.25;;;;;;;1.82;100.00;96595.81;2621357;28;20087;-79
2023/03/11 04:45:50;;;;;;;1.50;1.08;;;;;;;1.83;100.00;96607.84;2621394;28;20452;-79
2023/03/11 04:47:06;;;;;;;1.30;0.90;;;;;;;1.71;100.00;96596.94;2621380;28;20036;-79
2023/03/11 04:48:23;;;;;;;1.30;0.93;;;;;;;1.78;100.00;96617.41;2621296;28;20077;-79
2023/03/11 04:49:39;;;;;;;1.70;1.25;;;;;;;1.63;100.00;96610.00;2621411;28;20492;-79
2023/03/11 04:50:54;;;;;;;1.33;1.05;;;;;;;1.69;100.00;96594.41;2621424;28;20071;-79
2023/03/11 04:52:10;;;;;;;1.63;1.10;;;;;;;1.67;100.00;96609.03;2621083;28;20052;-79
2023/03/11 04:53:25;;;;;;;0.77;0.63;;;;;;;1.93;100.00;96610.19;2621326;28;20491;-79
2023/03/11 04:54:41;;;;;;;0.98;0.90;;;;;;;1.91;100.00;96605.09;2621062;28;20139;-79
2023/03/11 04:55:57;;;;;;;1.35;0.85;;;;;;;1.76;100.00;96601.09;2621298;28;20490;-79
2023/03/11 04:57:13;;;;;;;1.17;0.90;;;;;;;1.63;100.00;96618.59;2621213;28;20053;-79
2023/03/11 04:58:28;;;;;;;1.60;0.88;;;;;;;1.78;100.00;96617.41;2621196;28;20498;-79
2023/03/11 04:59:44;;;;;;;1.75;1.20;;;;;;;1.85;100.00;96610.38;2621198;28;20053;-80
2023/03/11 05:01:00;;;;;;;1.65;1.17;;;;;;;1.65;100.00;96611.69;2621219;28;20048;-79
2023/03/11 05:02:15;;;;;;;1.05;0.65;;;;;;;1.79;100.00;96623.41;2620899;28;20048;-79
2023/03/11 05:03:31;;;;;;;1.50;0.80;;;;;;;1.90;100.00;96625.75;2621214;28;20510;-79
2023/03/11 05:04:46;;;;;;;0.52;0.52;;;;;;;1.84;100.00;96624.16;2621321;28;20049;-79
2023/03/11 05:06:02;;;;;;;1.77;0.90;;;;;;;1.73;100.00;96632.16;2621103;28;20049;-79
2023/03/11 05:07:18;;;;;;;2.45;1.08;;;;;;;1.72;100.00;96645.06;2621115;28;20068;-79
2023/03/11 05:08:33;;;;;;;1.13;0.95;;;;;;;1.82;100.00;96637.13;2621124;28;20109;-79
2023/03/11 05:09:49;;;;;;;2.45;1.00;;;;;;;1.67;100.00;96651.19;2621246;28;20041;-84
2023/03/11 05:11:05;;;;;;;0.98;0.80;;;;;;;1.79;100.00;96651.81;2621234;28;20044;-79
2023/03/11 05:12:21;;;;;;;1.52;1.00;;;;;;;1.66;100.00;96664.09;2621306;28;20052;-79
2023/03/11 05:13:36;;;;;;;1.27;0.88;;;;;;;1.71;100.00;96667.44;2621113;28;20049;-79
2023/03/11 05:14:52;;;;;;;1.35;0.90;;;;;;;1.71;100.00;96659.72;2621062;28;20052;-79
2023/03/11 05:16:08;;;;;;;1.15;0.95;;;;;;;1.68;100.00;96675.25;2620833;28;20052;-79
2023/03/11 05:17:24;;;;;;;0.73;0.60;;;;;;;1.79;100.00;96675.03;2620899;28;20123;-79
2023/03/11 05:18:40;;;;;;;0.98;0.77;;;;;;;1.78;100.00;96675.91;2609824;28;20065;-79
2023/03/11 05:19:56;;;;;;;1.58;0.95;;;;;;;1.78;100.00;96675.91;2614406;28;20135;-79
2023/03/11 05:21:12;;;;;;;1.10;1.00;;;;;;;1.67;100.00;96687.28;2620985;28;20139;-79
2023/03/11 05:22:27;;;;;;;1.40;1.20;;;;;;;1.75;100.00;96688.88;2609982;28;20084;-79
2023/03/11 05:23:44;;;;;;;0.73;0.73;;;;;;;1.75;100.00;96681.16;2614169;28;20452;-79
2023/03/11 05:24:59;;;;;;;1.17;0.80;;;;;;;1.86;100.00;96683.47;2620897;28;20048;-79
2023/03/11 05:26:15;;;;;;;1.58;0.90;;;;;;;1.61;100.00;96700.34;2621015;28;20128;-79
2023/03/11 05:27:31;;;;;;;1.08;0.70;;;;;;;1.85;100.00;96692.94;2621019;28;20049;-80
2023/03/11 05:28:46;;;;;;;0.95;0.70;;;;;;;1.72;100.00;96691.50;2620883;28;20472;-80
2023/03/11 05:30:03;;;;;;;1.23;0.93;;;;;;;1.75;100.00;96692.28;2620922;28;20116;-79
2023/03/11 05:31:19;;;;;;;0.60;0.60;;;;;;;1.90;100.00;96706.63;2620591;28;20064;-79
2023/03/11 05:32:34;;;;;;;1.63;0.98;;;;;;;1.59;100.00;96704.66;2621003;28;20044;-79
2023/03/11 05:33:50;;;;;;;1.20;0.73;;;;;;;1.73;100.00;96706.09;2620967;28;20048;-80
2023/03/11 05:35:06;;;;;;;1.42;0.80;;;;;;;1.79;100.00;96700.81;2620763;28;20094;-79
2023/03/11 05:36:22;;;;;;;0.68;0.63;;;;;;;1.91;100.00;96715.19;2620854;28;20337;-79
2023/03/11 05:37:38;;;;;;;1.48;0.93;;;;;;;1.79;100.00;96714.56;2620943;28;20090;-79
2023/03/11 05:38:53;;;;;;;1.17;0.95;;;;;;;1.67;100.00;96714.81;2620835;28;20056;-79
2023/03/11 05:40:11;;;;;;;0.70;0.70;;;;;;;1.66;100.00;96721.72;2620773;28;20053;-79
2023/03/11 05:41:26;;;;;;;0.90;0.68;;;;;;;1.64;100.00;96715.75;2620807;28;20121;-79
2023/03/11 05:42:42;;;;;;;1.02;0.73;;;;;;;1.72;100.00;96717.31;2620758;28;20048;-79
2023/03/11 05:43:57;;;;;;;1.33;0.93;;;;;;;1.69;100.00;96733.72;2620786;28;20048;-79
2023/03/11 05:45:13;;;;;;;1.83;0.95;;;;;;;1.61;100.00;96722.69;2620681;28;20050;-79
2023/03/11 05:46:29;;;;;;;1.50;0.73;;;;;;;1.83;100.00;96725.69;2620838;28;20040;-79
2023/03/11 05:47:45;;;;;;;0.77;0.70;;;;;;;1.74;100.00;96715.53;2609552;28;20052;-79
2023/03/11 05:49:01;;;;;;;0.85;0.80;;;;;;;1.64;100.00;96730.34;2613980;28;20071;-79
2023/03/11 05:50:17;;;;;;;1.95;0.82;;;;;;;1.69;100.00;96729.38;2620698;28;20464;-80
2023/03/11 05:51:32;;;;;;;0.60;0.60;;;;;;;1.74;100.00;96751.66;2620695;28;20075;-80
2023/03/11 05:52:48;;;;;;;0.90;0.82;;;;;;;1.53;100.00;96741.72;2620414;28;20123;-79
2023/03/11 05:54:10;;;;;;;0.70;0.68;;;;;;;1.71;100.00;96752.59;2620828;28;20110;-79
2023/03/11 05:55:25;;;;;;;1.25;0.63;;;;;;;1.82;100.00;96747.19;2620886;28;20347;-79
2023/03/11 05:56:43;;;;;;;1.13;0.60;;;;;;;1.69;100.00;96749.19;2620761;28;20136;-79
2023/03/11 05:57:58;;;;;;;0.60;0.60;;;;;;;1.72;100.00;96743.09;2620825;28;20450;-79
2023/03/11 05:59:16;;;;;;;2.58;0.95;;;;;;;1.51;100.00;96761.53;2620601;28;20048;-79
2023/03/11 06:00:31;;;;;;;0.50;0.50;;;;;;;1.77;100.00;96747.28;2620688;28;20126;-79
2023/03/11 06:01:47;;;;;;;2.15;1.00;;;;;;;1.57;100.00;96758.00;2620530;28;20048;-80
2023/03/11 06:03:02;;;;;;;0.70;0.60;;;;;;;1.70;100.00;96768.94;2620725;28;20047;-79
2023/03/11 06:04:18;;;;;;;1.02;0.73;;;;;;;1.71;100.00;96767.19;2620645;28;20052;-79
2023/03/11 06:05:34;;;;;;;1.05;0.73;;;;;;;1.70;100.00;96761.22;2620520;28;20069;-79
2023/03/11 06:06:49;;;;;;;1.30;0.88;;;;;;;1.51;100.00;96769.28;2620756;28;20052;-79
2023/03/11 06:08:05;;;;;;;0.93;0.77;;;;;;;1.68;100.00;96762.97;2620494;28;20127;-79
2023/03/11 06:09:21;;;;;;;1.33;0.77;;;;;;;1.65;100.00;96761.28;2620504;28;20476;-78
2023/03/11 06:10:36;;;;;;;0.50;0.50;;;;;;;1.53;100.00;96783.00;2620580;28;20049;-79
2023/03/11 06:11:52;;;;;;;0.80;0.80;;;;;;;1.64;100.00;96777.66;2609477;28;20060;-80
2023/03/11 06:13:09;;;;;;;0.68;0.60;;;;;;;1.58;100.00;96780.34;2614119;28;20074;-79
2023/03/11 06:14:24;;;;;;;1.42;0.98;;;;;;;1.62;100.00;96787.16;2620651;28;20053;-79
2023/03/11 06:15:40;;;;;;;1.02;0.60;;;;;;;1.77;100.00;96788.56;2620461;28;20052;-79